sensor_id;sensor_type;location;lat;lon;timestamp;P1;durP1;ratioP1;P2;durP2;ratioP2
71610;SDS011;59459;51.172;6.682;2022-09-16T00:01:12;5.53;;;0.70;;
71610;SDS011;59459;51.172;6.682;2022-09-16T00:03:37;2.20;;;0.50;;
71610;SDS011;59459;51.172;6.682;2022-09-16T00:06:03;2.00;;;0.50;;
71610;SDS011;59459;51.172;6.682;2022-09-16T00:08:28;1.77;;;0.73;;
71610;SDS011;59459;51.172;6.682;2022-09-16T00:10:57;4.07;;;0.60;;
71610;SDS011;59459;51.172;6.682;2022-09-16T00:13:23;3.50;;;0.60;;
71610;SDS011;59459;51.172;6.682;2022-09-16T00:15:48;5.03;;;0.60;;
71610;SDS011;59459;51.172;6.682;2022-09-16T00:18:14;4.15;;;0.55;;
71610;SDS011;59459;51.172;6.682;2022-09-16T00:20:46;3.33;;;0.93;;
71610;SDS011;59459;51.172;6.682;2022-09-16T00:23:12;3.07;;;0.50;;
71610;SDS011;59459;51.172;6.682;2022-09-16T00:25:37;4.20;;;0.67;;
71610;SDS011;59459;51.172;6.682;2022-09-16T00:28:03;5.13;;;0.60;;
71610;SDS011;59459;51.172;6.682;2022-09-16T00:30:30;7.43;;;0.70;;
71610;SDS011;59459;51.172;6.682;2022-09-16T00:32:55;2.90;;;0.60;;
71610;SDS011;59459;51.172;6.682;2022-09-16T00:35:20;3.27;;;0.70;;
71610;SDS011;59459;51.172;6.682;2022-09-16T00:37:46;5.40;;;0.75;;
71610;SDS011;59459;51.172;6.682;2022-09-16T00:40:12;4.87;;;1.10;;
71610;SDS011;59459;51.172;6.682;2022-09-16T00:42:38;5.63;;;0.70;;
71610;SDS011;59459;51.172;6.682;2022-09-16T00:45:04;2.92;;;0.55;;
71610;SDS011;59459;51.172;6.682;2022-09-16T00:47:31;4.82;;;0.60;;
71610;SDS011;59459;51.172;6.682;2022-09-16T00:49:58;5.13;;;0.60;;
71610;SDS011;59459;51.172;6.682;2022-09-16T00:52:26;3.50;;;0.70;;
71610;SDS011;59459;51.172;6.682;2022-09-16T00:54:52;6.47;;;0.88;;
71610;SDS011;59459;51.172;6.682;2022-09-16T00:57:17;2.90;;;1.10;;
71610;SDS011;59459;51.172;6.682;2022-09-16T00:59:44;6.10;;;1.20;;
71610;SDS011;59459;51.172;6.682;2022-09-16T01:02:11;3.08;;;0.82;;
71610;SDS011;59459;51.172;6.682;2022-09-16T01:04:42;3.60;;;0.70;;
71610;SDS011;59459;51.172;6.682;2022-09-16T01:07:08;4.78;;;0.82;;
71610;SDS011;59459;51.172;6.682;2022-09-16T01:09:33;4.87;;;1.20;;
71610;SDS011;59459;51.172;6.682;2022-09-16T01:11:58;4.93;;;0.83;;
71610;SDS011;59459;51.172;6.682;2022-09-16T01:14:23;2.10;;;0.80;;
71610;SDS011;59459;51.172;6.682;2022-09-16T01:32:59;5.00;;;0.70;;
71610;SDS011;59459;51.172;6.682;2022-09-16T01:43:22;5.63;;;1.00;;
71610;SDS011;59459;51.172;6.682;2022-09-16T01:53:38;6.65;;;1.27;;
71610;SDS011;59459;51.172;6.682;2022-09-16T01:56:07;2.85;;;1.00;;
71610;SDS011;59459;51.172;6.682;2022-09-16T02:01:58;5.00;;;1.40;;
71610;SDS011;59459;51.172;6.682;2022-09-16T02:04:04;6.35;;;1.13;;
71610;SDS011;59459;51.172;6.682;2022-09-16T02:06:30;9.55;;;1.50;;
71610;SDS011;59459;51.172;6.682;2022-09-16T02:09:04;9.05;;;1.55;;
71610;SDS011;59459;51.172;6.682;2022-09-16T02:11:31;4.13;;;1.00;;
71610;SDS011;59459;51.172;6.682;2022-09-16T02:14:02;4.37;;;1.33;;
71610;SDS011;59459;51.172;6.682;2022-09-16T02:18:58;5.68;;;1.40;;
71610;SDS011;59459;51.172;6.682;2022-09-16T02:21:26;7.22;;;1.70;;
71610;SDS011;59459;51.172;6.682;2022-09-16T02:23:54;4.27;;;1.10;;
71610;SDS011;59459;51.172;6.682;2022-09-16T02:26:23;6.75;;;1.40;;
71610;SDS011;59459;51.172;6.682;2022-09-16T02:28:51;6.60;;;1.50;;
71610;SDS011;59459;51.172;6.682;2022-09-16T02:31:17;9.10;;;1.80;;
71610;SDS011;59459;51.172;6.682;2022-09-16T02:33:45;6.85;;;1.77;;
71610;SDS011;59459;51.172;6.682;2022-09-16T02:36:13;6.30;;;2.13;;
71610;SDS011;59459;51.172;6.682;2022-09-16T02:38:45;7.97;;;1.88;;
71610;SDS011;59459;51.172;6.682;2022-09-16T02:41:12;9.10;;;1.63;;
71610;SDS011;59459;51.172;6.682;2022-09-16T02:43:42;6.13;;;1.40;;
71610;SDS011;59459;51.172;6.682;2022-09-16T02:53:49;6.78;;;1.73;;
71610;SDS011;59459;51.172;6.682;2022-09-16T02:56:21;6.45;;;1.70;;
71610;SDS011;59459;51.172;6.682;2022-09-16T02:58:47;6.68;;;1.70;;
71610;SDS011;59459;51.172;6.682;2022-09-16T03:01:12;7.60;;;2.00;;
71610;SDS011;59459;51.172;6.682;2022-09-16T03:03:38;9.83;;;2.30;;
71610;SDS011;59459;51.172;6.682;2022-09-16T03:08:38;9.27;;;1.80;;
71610;SDS011;59459;51.172;6.682;2022-09-16T03:19:20;6.88;;;2.28;;
71610;SDS011;59459;51.172;6.682;2022-09-16T03:24:27;6.78;;;1.95;;
71610;SDS011;59459;51.172;6.682;2022-09-16T03:27:04;9.30;;;2.42;;
71610;SDS011;59459;51.172;6.682;2022-09-16T03:29:32;5.97;;;1.83;;
71610;SDS011;59459;51.172;6.682;2022-09-16T03:34:34;9.60;;;1.83;;
71610;SDS011;59459;51.172;6.682;2022-09-16T03:37:02;8.38;;;1.70;;
71610;SDS011;59459;51.172;6.682;2022-09-16T03:39:28;6.22;;;1.27;;
71610;SDS011;59459;51.172;6.682;2022-09-16T03:41:54;4.85;;;1.40;;
71610;SDS011;59459;51.172;6.682;2022-09-16T03:44:29;7.90;;;1.65;;
71610;SDS011;59459;51.172;6.682;2022-09-16T03:46:55;6.33;;;1.10;;
71610;SDS011;59459;51.172;6.682;2022-09-16T03:49:20;4.78;;;1.27;;
71610;SDS011;59459;51.172;6.682;2022-09-16T03:51:46;7.73;;;1.60;;
71610;SDS011;59459;51.172;6.682;2022-09-16T03:54:11;8.57;;;1.57;;
71610;SDS011;59459;51.172;6.682;2022-09-16T03:56:36;6.30;;;1.00;;
71610;SDS011;59459;51.172;6.682;2022-09-16T03:59:01;4.67;;;1.40;;
71610;SDS011;59459;51.172;6.682;2022-09-16T04:01:26;5.17;;;1.30;;
71610;SDS011;59459;51.172;6.682;2022-09-16T04:03:52;8.23;;;1.53;;
71610;SDS011;59459;51.172;6.682;2022-09-16T04:06:17;5.00;;;1.50;;
71610;SDS011;59459;51.172;6.682;2022-09-16T04:08:42;4.57;;;1.60;;
71610;SDS011;59459;51.172;6.682;2022-09-16T04:11:08;7.65;;;2.25;;
71610;SDS011;59459;51.172;6.682;2022-09-16T04:13:34;5.77;;;2.07;;
71610;SDS011;59459;51.172;6.682;2022-09-16T04:16:01;6.30;;;2.15;;
71610;SDS011;59459;51.172;6.682;2022-09-16T04:18:29;5.40;;;1.63;;
71610;SDS011;59459;51.172;6.682;2022-09-16T04:20:55;7.50;;;1.90;;
71610;SDS011;59459;51.172;6.682;2022-09-16T04:23:22;9.57;;;2.05;;
71610;SDS011;59459;51.172;6.682;2022-09-16T04:25:52;5.88;;;1.75;;
71610;SDS011;59459;51.172;6.682;2022-09-16T04:28:17;6.13;;;1.52;;
71610;SDS011;59459;51.172;6.682;2022-09-16T04:30:43;6.63;;;1.70;;
71610;SDS011;59459;51.172;6.682;2022-09-16T04:33:08;6.93;;;1.70;;
71610;SDS011;59459;51.172;6.682;2022-09-16T04:35:33;7.93;;;1.70;;
71610;SDS011;59459;51.172;6.682;2022-09-16T04:37:58;4.67;;;1.20;;
71610;SDS011;59459;51.172;6.682;2022-09-16T04:40:23;4.00;;;1.40;;
71610;SDS011;59459;51.172;6.682;2022-09-16T04:42:49;5.20;;;1.37;;
71610;SDS011;59459;51.172;6.682;2022-09-16T04:45:14;8.47;;;1.40;;
71610;SDS011;59459;51.172;6.682;2022-09-16T04:47:39;5.47;;;1.07;;
71610;SDS011;59459;51.172;6.682;2022-09-16T04:50:05;9.23;;;1.60;;
71610;SDS011;59459;51.172;6.682;2022-09-16T04:52:30;7.20;;;1.67;;
71610;SDS011;59459;51.172;6.682;2022-09-16T04:54:55;6.30;;;1.70;;
71610;SDS011;59459;51.172;6.682;2022-09-16T04:57:20;6.30;;;1.40;;
71610;SDS011;59459;51.172;6.682;2022-09-16T04:59:46;5.80;;;1.27;;
71610;SDS011;59459;51.172;6.682;2022-09-16T05:02:11;5.57;;;1.20;;
71610;SDS011;59459;51.172;6.682;2022-09-16T05:04:36;4.57;;;1.00;;
71610;SDS011;59459;51.172;6.682;2022-09-16T05:07:01;5.80;;;1.20;;
71610;SDS011;59459;51.172;6.682;2022-09-16T05:09:27;5.77;;;1.17;;
71610;SDS011;59459;51.172;6.682;2022-09-16T05:11:52;5.27;;;1.10;;
71610;SDS011;59459;51.172;6.682;2022-09-16T05:14:17;3.93;;;0.93;;
71610;SDS011;59459;51.172;6.682;2022-09-16T05:16:43;5.13;;;1.17;;
71610;SDS011;59459;51.172;6.682;2022-09-16T05:19:09;6.07;;;1.27;;
71610;SDS011;59459;51.172;6.682;2022-09-16T05:21:35;5.43;;;1.20;;
71610;SDS011;59459;51.172;6.682;2022-09-16T05:24:01;6.57;;;1.17;;
71610;SDS011;59459;51.172;6.682;2022-09-16T05:26:28;5.53;;;1.30;;
71610;SDS011;59459;51.172;6.682;2022-09-16T05:28:53;5.22;;;1.17;;
71610;SDS011;59459;51.172;6.682;2022-09-16T05:31:20;7.43;;;1.20;;
71610;SDS011;59459;51.172;6.682;2022-09-16T05:33:47;5.63;;;1.17;;
71610;SDS011;59459;51.172;6.682;2022-09-16T05:36:16;5.03;;;1.20;;
71610;SDS011;59459;51.172;6.682;2022-09-16T05:38:42;4.13;;;1.10;;
71610;SDS011;59459;51.172;6.682;2022-09-16T05:41:07;6.47;;;1.20;;
71610;SDS011;59459;51.172;6.682;2022-09-16T05:43:33;6.93;;;1.27;;
71610;SDS011;59459;51.172;6.682;2022-09-16T05:45:58;6.10;;;1.20;;
71610;SDS011;59459;51.172;6.682;2022-09-16T05:48:24;4.60;;;1.43;;
71610;SDS011;59459;51.172;6.682;2022-09-16T05:50:50;8.13;;;1.43;;
71610;SDS011;59459;51.172;6.682;2022-09-16T05:53:16;3.90;;;1.23;;
71610;SDS011;59459;51.172;6.682;2022-09-16T05:55:41;4.27;;;1.20;;
71610;SDS011;59459;51.172;6.682;2022-09-16T05:58:06;7.27;;;1.27;;
71610;SDS011;59459;51.172;6.682;2022-09-16T06:00:31;5.00;;;0.87;;
71610;SDS011;59459;51.172;6.682;2022-09-16T06:02:56;5.00;;;1.60;;
71610;SDS011;59459;51.172;6.682;2022-09-16T06:05:22;6.80;;;1.40;;
71610;SDS011;59459;51.172;6.682;2022-09-16T06:07:47;7.57;;;1.50;;
71610;SDS011;59459;51.172;6.682;2022-09-16T06:10:12;4.97;;;1.23;;
71610;SDS011;59459;51.172;6.682;2022-09-16T06:12:37;6.33;;;1.43;;
71610;SDS011;59459;51.172;6.682;2022-09-16T06:15:03;4.38;;;1.40;;
71610;SDS011;59459;51.172;6.682;2022-09-16T06:17:28;6.77;;;1.30;;
71610;SDS011;59459;51.172;6.682;2022-09-16T06:19:53;6.67;;;1.30;;
71610;SDS011;59459;51.172;6.682;2022-09-16T06:22:19;6.07;;;1.70;;
71610;SDS011;59459;51.172;6.682;2022-09-16T06:24:44;7.77;;;1.27;;
71610;SDS011;59459;51.172;6.682;2022-09-16T06:27:09;6.27;;;1.10;;
71610;SDS011;59459;51.172;6.682;2022-09-16T06:29:34;5.20;;;1.07;;
71610;SDS011;59459;51.172;6.682;2022-09-16T06:31:59;4.87;;;1.20;;
71610;SDS011;59459;51.172;6.682;2022-09-16T06:34:25;6.27;;;1.20;;
71610;SDS011;59459;51.172;6.682;2022-09-16T06:36:50;5.63;;;0.88;;
71610;SDS011;59459;51.172;6.682;2022-09-16T06:39:16;6.80;;;1.20;;
71610;SDS011;59459;51.172;6.682;2022-09-16T06:41:41;9.07;;;1.10;;
71610;SDS011;59459;51.172;6.682;2022-09-16T06:44:07;6.93;;;1.20;;
71610;SDS011;59459;51.172;6.682;2022-09-16T06:46:32;8.37;;;1.07;;
71610;SDS011;59459;51.172;6.682;2022-09-16T06:48:57;6.40;;;1.27;;
71610;SDS011;59459;51.172;6.682;2022-09-16T06:51:24;5.37;;;1.07;;
71610;SDS011;59459;51.172;6.682;2022-09-16T06:53:49;5.13;;;1.10;;
71610;SDS011;59459;51.172;6.682;2022-09-16T06:56:16;6.57;;;0.90;;
71610;SDS011;59459;51.172;6.682;2022-09-16T06:58:42;5.53;;;1.10;;
71610;SDS011;59459;51.172;6.682;2022-09-16T07:01:09;6.70;;;1.20;;
71610;SDS011;59459;51.172;6.682;2022-09-16T07:03:41;4.70;;;1.17;;
71610;SDS011;59459;51.172;6.682;2022-09-16T07:06:07;5.35;;;1.02;;
71610;SDS011;59459;51.172;6.682;2022-09-16T07:08:33;5.10;;;1.45;;
71610;SDS011;59459;51.172;6.682;2022-09-16T07:11:00;6.05;;;1.10;;
71610;SDS011;59459;51.172;6.682;2022-09-16T07:13:25;6.47;;;1.10;;
71610;SDS011;59459;51.172;6.682;2022-09-16T07:15:51;4.30;;;1.00;;
71610;SDS011;59459;51.172;6.682;2022-09-16T07:18:16;4.93;;;1.60;;
71610;SDS011;59459;51.172;6.682;2022-09-16T07:20:41;5.57;;;1.10;;
71610;SDS011;59459;51.172;6.682;2022-09-16T07:23:06;6.67;;;1.23;;
71610;SDS011;59459;51.172;6.682;2022-09-16T07:25:32;3.07;;;0.80;;
71610;SDS011;59459;51.172;6.682;2022-09-16T07:27:57;4.17;;;0.90;;
71610;SDS011;59459;51.172;6.682;2022-09-16T07:30:22;5.43;;;0.97;;
71610;SDS011;59459;51.172;6.682;2022-09-16T07:32:47;6.60;;;1.20;;
71610;SDS011;59459;51.172;6.682;2022-09-16T07:35:12;6.27;;;1.33;;
71610;SDS011;59459;51.172;6.682;2022-09-16T07:37:38;4.93;;;1.07;;
71610;SDS011;59459;51.172;6.682;2022-09-16T07:40:03;3.40;;;1.00;;
71610;SDS011;59459;51.172;6.682;2022-09-16T07:42:29;5.20;;;1.00;;
71610;SDS011;59459;51.172;6.682;2022-09-16T07:44:54;9.30;;;1.20;;
71610;SDS011;59459;51.172;6.682;2022-09-16T07:47:19;7.50;;;1.20;;
71610;SDS011;59459;51.172;6.682;2022-09-16T07:49:44;7.90;;;1.27;;
71610;SDS011;59459;51.172;6.682;2022-09-16T07:52:10;5.95;;;0.98;;
71610;SDS011;59459;51.172;6.682;2022-09-16T07:54:36;5.43;;;1.40;;
71610;SDS011;59459;51.172;6.682;2022-09-16T07:57:01;5.53;;;1.00;;
71610;SDS011;59459;51.172;6.682;2022-09-16T07:59:26;3.33;;;0.80;;
71610;SDS011;59459;51.172;6.682;2022-09-16T08:01:51;3.90;;;0.83;;
71610;SDS011;59459;51.172;6.682;2022-09-16T08:04:17;3.83;;;0.90;;
71610;SDS011;59459;51.172;6.682;2022-09-16T08:06:42;5.15;;;0.90;;
71610;SDS011;59459;51.172;6.682;2022-09-16T08:09:08;7.50;;;1.40;;
71610;SDS011;59459;51.172;6.682;2022-09-16T08:11:33;5.60;;;0.90;;
71610;SDS011;59459;51.172;6.682;2022-09-16T08:13:58;2.40;;;0.60;;
71610;SDS011;59459;51.172;6.682;2022-09-16T08:16:24;5.93;;;0.80;;
71610;SDS011;59459;51.172;6.682;2022-09-16T08:18:50;4.60;;;0.80;;
71610;SDS011;59459;51.172;6.682;2022-09-16T08:21:17;4.05;;;0.70;;
71610;SDS011;59459;51.172;6.682;2022-09-16T08:23:43;7.07;;;1.00;;
71610;SDS011;59459;51.172;6.682;2022-09-16T08:26:08;7.63;;;0.90;;
71610;SDS011;59459;51.172;6.682;2022-09-16T08:28:35;4.50;;;0.80;;
71610;SDS011;59459;51.172;6.682;2022-09-16T08:31:01;7.50;;;1.48;;
71610;SDS011;59459;51.172;6.682;2022-09-16T08:33:27;5.35;;;1.00;;
71610;SDS011;59459;51.172;6.682;2022-09-16T08:38:27;4.55;;;1.00;;
71610;SDS011;59459;51.172;6.682;2022-09-16T08:40:55;4.37;;;0.80;;
71610;SDS011;59459;51.172;6.682;2022-09-16T08:43:25;2.90;;;0.60;;
71610;SDS011;59459;51.172;6.682;2022-09-16T08:48:51;4.10;;;0.70;;
71610;SDS011;59459;51.172;6.682;2022-09-16T08:51:18;4.63;;;0.50;;
71610;SDS011;59459;51.172;6.682;2022-09-16T08:53:46;4.82;;;0.60;;
71610;SDS011;59459;51.172;6.682;2022-09-16T08:56:13;3.03;;;0.80;;
71610;SDS011;59459;51.172;6.682;2022-09-16T08:58:44;5.10;;;0.70;;
71610;SDS011;59459;51.172;6.682;2022-09-16T09:01:54;3.50;;;0.60;;
71610;SDS011;59459;51.172;6.682;2022-09-16T09:03:58;2.30;;;0.50;;
71610;SDS011;59459;51.172;6.682;2022-09-16T09:08:53;3.07;;;0.70;;
71610;SDS011;59459;51.172;6.682;2022-09-16T09:11:23;4.15;;;0.70;;
71610;SDS011;59459;51.172;6.682;2022-09-16T09:21:47;2.45;;;0.47;;
71610;SDS011;59459;51.172;6.682;2022-09-16T09:26:53;9.07;;;1.02;;
71610;SDS011;59459;51.172;6.682;2022-09-16T09:39:44;4.75;;;0.57;;
71610;SDS011;59459;51.172;6.682;2022-09-16T09:44:54;5.87;;;0.67;;
71610;SDS011;59459;51.172;6.682;2022-09-16T09:47:25;5.70;;;0.60;;
71610;SDS011;59459;51.172;6.682;2022-09-16T09:49:54;2.10;;;0.43;;
71610;SDS011;59459;51.172;6.682;2022-09-16T09:55:23;3.80;;;0.50;;
71610;SDS011;59459;51.172;6.682;2022-09-16T09:57:54;5.22;;;0.57;;
71610;SDS011;59459;51.172;6.682;2022-09-16T10:00:21;5.70;;;0.57;;
71610;SDS011;59459;51.172;6.682;2022-09-16T10:02:47;4.43;;;0.70;;
71610;SDS011;59459;51.172;6.682;2022-09-16T10:07:44;4.30;;;0.65;;
71610;SDS011;59459;51.172;6.682;2022-09-16T10:10:13;3.30;;;0.57;;
71610;SDS011;59459;51.172;6.682;2022-09-16T10:12:39;4.68;;;1.30;;
71610;SDS011;59459;51.172;6.682;2022-09-16T10:15:04;5.03;;;1.60;;
71610;SDS011;59459;51.172;6.682;2022-09-16T10:17:30;6.93;;;1.15;;
71610;SDS011;59459;51.172;6.682;2022-09-16T10:20:00;1.97;;;0.60;;
71610;SDS011;59459;51.172;6.682;2022-09-16T10:22:29;6.40;;;0.70;;
71610;SDS011;59459;51.172;6.682;2022-09-16T10:24:56;2.65;;;0.50;;
71610;SDS011;59459;51.172;6.682;2022-09-16T10:27:32;1.65;;;0.47;;
71610;SDS011;59459;51.172;6.682;2022-09-16T10:30:11;4.00;;;0.52;;
71610;SDS011;59459;51.172;6.682;2022-09-16T10:35:25;2.00;;;0.47;;
71610;SDS011;59459;51.172;6.682;2022-09-16T10:37:52;3.00;;;0.50;;
71610;SDS011;59459;51.172;6.682;2022-09-16T10:40:18;4.07;;;0.60;;
71610;SDS011;59459;51.172;6.682;2022-09-16T10:42:47;3.30;;;0.53;;
71610;SDS011;59459;51.172;6.682;2022-09-16T10:45:15;4.95;;;1.00;;
71610;SDS011;59459;51.172;6.682;2022-09-16T10:47:46;6.72;;;0.63;;
71610;SDS011;59459;51.172;6.682;2022-09-16T10:50:17;5.32;;;0.68;;
71610;SDS011;59459;51.172;6.682;2022-09-16T10:52:44;2.17;;;0.40;;
71610;SDS011;59459;51.172;6.682;2022-09-16T10:55:31;3.17;;;0.52;;
71610;SDS011;59459;51.172;6.682;2022-09-16T10:58:13;3.60;;;1.08;;
71610;SDS011;59459;51.172;6.682;2022-09-16T11:01:03;2.00;;;0.70;;
71610;SDS011;59459;51.172;6.682;2022-09-16T11:08:57;2.45;;;0.60;;
71610;SDS011;59459;51.172;6.682;2022-09-16T11:14:15;3.05;;;0.70;;
71610;SDS011;59459;51.172;6.682;2022-09-16T11:27:05;3.88;;;0.50;;
71610;SDS011;59459;51.172;6.682;2022-09-16T11:37:46;4.18;;;0.50;;
71610;SDS011;59459;51.172;6.682;2022-09-16T11:57:59;3.30;;;0.60;;
71610;SDS011;59459;51.172;6.682;2022-09-16T12:00:26;2.63;;;0.70;;
71610;SDS011;59459;51.172;6.682;2022-09-16T12:05:22;2.33;;;0.37;;
71610;SDS011;59459;51.172;6.682;2022-09-16T12:07:51;1.25;;;0.40;;
71610;SDS011;59459;51.172;6.682;2022-09-16T12:10:24;1.58;;;0.43;;
71610;SDS011;59459;51.172;6.682;2022-09-16T12:12:59;2.97;;;0.40;;
71610;SDS011;59459;51.172;6.682;2022-09-16T12:15:28;2.78;;;0.40;;
71610;SDS011;59459;51.172;6.682;2022-09-16T12:17:56;0.97;;;0.30;;
71610;SDS011;59459;51.172;6.682;2022-09-16T12:20:41;1.13;;;0.30;;
71610;SDS011;59459;51.172;6.682;2022-09-16T12:26:37;1.27;;;0.52;;
71610;SDS011;59459;51.172;6.682;2022-09-16T12:28:34;2.60;;;0.47;;
71610;SDS011;59459;51.172;6.682;2022-09-16T12:31:11;0.80;;;0.40;;
71610;SDS011;59459;51.172;6.682;2022-09-16T12:33:44;5.15;;;2.30;;
71610;SDS011;59459;51.172;6.682;2022-09-16T12:36:17;3.40;;;1.25;;
71610;SDS011;59459;51.172;6.682;2022-09-16T12:38:44;2.53;;;0.60;;
71610;SDS011;59459;51.172;6.682;2022-09-16T12:44:07;1.02;;;0.43;;
71610;SDS011;59459;51.172;6.682;2022-09-16T13:02:04;1.53;;;0.53;;
71610;SDS011;59459;51.172;6.682;2022-09-16T13:04:36;10.48;;;0.73;;
71610;SDS011;59459;51.172;6.682;2022-09-16T13:07:03;4.00;;;0.50;;
71610;SDS011;59459;51.172;6.682;2022-09-16T13:09:33;5.60;;;1.13;;
71610;SDS011;59459;51.172;6.682;2022-09-16T13:12:21;5.20;;;1.50;;
71610;SDS011;59459;51.172;6.682;2022-09-16T13:14:48;4.97;;;1.33;;
71610;SDS011;59459;51.172;6.682;2022-09-16T13:17:25;6.57;;;1.30;;
71610;SDS011;59459;51.172;6.682;2022-09-16T13:19:50;2.63;;;0.65;;
71610;SDS011;59459;51.172;6.682;2022-09-16T13:24:47;3.03;;;0.82;;
71610;SDS011;59459;51.172;6.682;2022-09-16T13:27:24;5.20;;;0.50;;
71610;SDS011;59459;51.172;6.682;2022-09-16T13:29:49;3.20;;;0.50;;
71610;SDS011;59459;51.172;6.682;2022-09-16T13:32:27;2.87;;;0.70;;
71610;SDS011;59459;51.172;6.682;2022-09-16T13:35:01;4.25;;;0.50;;
71610;SDS011;59459;51.172;6.682;2022-09-16T13:37:26;4.80;;;0.65;;
71610;SDS011;59459;51.172;6.682;2022-09-16T13:39:52;5.07;;;0.80;;
71610;SDS011;59459;51.172;6.682;2022-09-16T13:42:18;2.77;;;0.63;;
71610;SDS011;59459;51.172;6.682;2022-09-16T13:44:44;3.53;;;0.70;;
71610;SDS011;59459;51.172;6.682;2022-09-16T13:52:38;2.85;;;0.60;;
71610;SDS011;59459;51.172;6.682;2022-09-16T13:55:05;2.00;;;0.63;;
71610;SDS011;59459;51.172;6.682;2022-09-16T14:00:36;2.47;;;0.50;;
71610;SDS011;59459;51.172;6.682;2022-09-16T14:03:06;2.70;;;0.50;;
71610;SDS011;59459;51.172;6.682;2022-09-16T14:08:27;2.17;;;0.50;;
71610;SDS011;59459;51.172;6.682;2022-09-16T14:11:05;3.17;;;0.50;;
71610;SDS011;59459;51.172;6.682;2022-09-16T14:13:35;2.03;;;0.50;;
71610;SDS011;59459;51.172;6.682;2022-09-16T14:16:00;3.13;;;0.52;;
71610;SDS011;59459;51.172;6.682;2022-09-16T14:18:27;2.40;;;0.47;;
71610;SDS011;59459;51.172;6.682;2022-09-16T14:21:03;2.65;;;0.52;;
71610;SDS011;59459;51.172;6.682;2022-09-16T14:23:29;3.13;;;0.50;;
71610;SDS011;59459;51.172;6.682;2022-09-16T14:25:55;2.90;;;0.50;;
71610;SDS011;59459;51.172;6.682;2022-09-16T14:28:24;1.73;;;0.43;;
71610;SDS011;59459;51.172;6.682;2022-09-16T14:33:15;2.73;;;0.57;;
71610;SDS011;59459;51.172;6.682;2022-09-16T14:35:42;2.50;;;0.40;;
71610;SDS011;59459;51.172;6.682;2022-09-16T14:38:08;2.78;;;0.43;;
71610;SDS011;59459;51.172;6.682;2022-09-16T14:40:33;2.43;;;0.50;;
71610;SDS011;59459;51.172;6.682;2022-09-16T14:43:03;3.67;;;0.40;;
71610;SDS011;59459;51.172;6.682;2022-09-16T14:45:29;2.83;;;0.40;;
71610;SDS011;59459;51.172;6.682;2022-09-16T14:47:55;1.03;;;0.40;;
71610;SDS011;59459;51.172;6.682;2022-09-16T14:50:26;1.50;;;0.60;;
71610;SDS011;59459;51.172;6.682;2022-09-16T14:52:53;1.55;;;0.40;;
71610;SDS011;59459;51.172;6.682;2022-09-16T14:55:20;1.92;;;0.50;;
71610;SDS011;59459;51.172;6.682;2022-09-16T14:57:45;1.83;;;0.63;;
71610;SDS011;59459;51.172;6.682;2022-09-16T15:00:12;2.13;;;0.60;;
71610;SDS011;59459;51.172;6.682;2022-09-16T15:05:19;2.67;;;0.40;;
71610;SDS011;59459;51.172;6.682;2022-09-16T15:07:45;1.75;;;0.50;;
71610;SDS011;59459;51.172;6.682;2022-09-16T15:10:23;3.77;;;0.57;;
71610;SDS011;59459;51.172;6.682;2022-09-16T15:12:50;5.05;;;0.68;;
71610;SDS011;59459;51.172;6.682;2022-09-16T15:15:24;3.53;;;0.40;;
71610;SDS011;59459;51.172;6.682;2022-09-16T15:20:31;4.40;;;0.50;;
71610;SDS011;59459;51.172;6.682;2022-09-16T15:22:58;2.47;;;0.60;;
71610;SDS011;59459;51.172;6.682;2022-09-16T15:25:25;1.60;;;0.43;;
71610;SDS011;59459;51.172;6.682;2022-09-16T15:28:02;2.40;;;0.52;;
71610;SDS011;59459;51.172;6.682;2022-09-16T15:30:27;3.47;;;0.50;;
71610;SDS011;59459;51.172;6.682;2022-09-16T15:32:52;1.67;;;0.50;;
71610;SDS011;59459;51.172;6.682;2022-09-16T15:35:24;3.07;;;0.40;;
71610;SDS011;59459;51.172;6.682;2022-09-16T15:37:51;2.63;;;0.50;;
71610;SDS011;59459;51.172;6.682;2022-09-16T15:42:43;2.42;;;0.60;;
71610;SDS011;59459;51.172;6.682;2022-09-16T15:45:16;2.90;;;0.50;;
71610;SDS011;59459;51.172;6.682;2022-09-16T15:47:49;6.18;;;0.70;;
71610;SDS011;59459;51.172;6.682;2022-09-16T15:50:16;3.38;;;0.60;;
71610;SDS011;59459;51.172;6.682;2022-09-16T15:55:29;2.03;;;0.40;;
71610;SDS011;59459;51.172;6.682;2022-09-16T15:57:57;2.60;;;0.50;;
71610;SDS011;59459;51.172;6.682;2022-09-16T16:00:24;4.18;;;0.70;;
71610;SDS011;59459;51.172;6.682;2022-09-16T16:02:55;2.87;;;0.50;;
71610;SDS011;59459;51.172;6.682;2022-09-16T16:07:51;4.57;;;0.60;;
71610;SDS011;59459;51.172;6.682;2022-09-16T16:12:42;3.00;;;0.60;;
71610;SDS011;59459;51.172;6.682;2022-09-16T16:15:10;4.28;;;0.43;;
71610;SDS011;59459;51.172;6.682;2022-09-16T16:17:35;4.50;;;0.50;;
71610;SDS011;59459;51.172;6.682;2022-09-16T16:20:00;3.07;;;0.57;;
71610;SDS011;59459;51.172;6.682;2022-09-16T16:22:26;2.35;;;0.60;;
71610;SDS011;59459;51.172;6.682;2022-09-16T16:24:52;2.20;;;0.50;;
71610;SDS011;59459;51.172;6.682;2022-09-16T16:27:17;2.57;;;0.47;;
71610;SDS011;59459;51.172;6.682;2022-09-16T16:29:43;2.33;;;0.40;;
71610;SDS011;59459;51.172;6.682;2022-09-16T16:32:09;4.20;;;1.17;;
71610;SDS011;59459;51.172;6.682;2022-09-16T16:34:35;6.43;;;0.50;;
71610;SDS011;59459;51.172;6.682;2022-09-16T16:37:01;2.78;;;0.50;;
71610;SDS011;59459;51.172;6.682;2022-09-16T16:39:26;5.07;;;0.60;;
71610;SDS011;59459;51.172;6.682;2022-09-16T16:41:52;3.93;;;0.50;;
71610;SDS011;59459;51.172;6.682;2022-09-16T16:44:17;6.50;;;0.70;;
71610;SDS011;59459;51.172;6.682;2022-09-16T16:46:43;6.17;;;0.90;;
71610;SDS011;59459;51.172;6.682;2022-09-16T16:49:08;4.43;;;0.60;;
71610;SDS011;59459;51.172;6.682;2022-09-16T16:51:33;4.13;;;0.60;;
71610;SDS011;59459;51.172;6.682;2022-09-16T16:53:58;4.50;;;0.63;;
71610;SDS011;59459;51.172;6.682;2022-09-16T16:56:25;4.30;;;0.50;;
71610;SDS011;59459;51.172;6.682;2022-09-16T16:58:50;2.40;;;0.60;;
71610;SDS011;59459;51.172;6.682;2022-09-16T17:01:16;5.53;;;0.70;;
71610;SDS011;59459;51.172;6.682;2022-09-16T17:03:42;5.43;;;1.10;;
71610;SDS011;59459;51.172;6.682;2022-09-16T17:06:08;4.10;;;0.70;;
71610;SDS011;59459;51.172;6.682;2022-09-16T17:08:34;4.77;;;0.63;;
71610;SDS011;59459;51.172;6.682;2022-09-16T17:11:10;5.57;;;0.57;;
71610;SDS011;59459;51.172;6.682;2022-09-16T17:13:36;6.53;;;0.85;;
71610;SDS011;59459;51.172;6.682;2022-09-16T17:16:02;7.72;;;0.80;;
71610;SDS011;59459;51.172;6.682;2022-09-16T17:18:27;4.40;;;0.60;;
71610;SDS011;59459;51.172;6.682;2022-09-16T17:20:52;5.90;;;1.00;;
71610;SDS011;59459;51.172;6.682;2022-09-16T17:23:17;3.83;;;0.60;;
71610;SDS011;59459;51.172;6.682;2022-09-16T17:25:43;3.27;;;0.40;;
71610;SDS011;59459;51.172;6.682;2022-09-16T17:28:12;6.15;;;0.73;;
71610;SDS011;59459;51.172;6.682;2022-09-16T17:30:41;5.30;;;0.80;;
71610;SDS011;59459;51.172;6.682;2022-09-16T17:33:06;7.95;;;1.00;;
71610;SDS011;59459;51.172;6.682;2022-09-16T17:35:31;2.23;;;0.77;;
71610;SDS011;59459;51.172;6.682;2022-09-16T17:37:56;4.13;;;1.20;;
71610;SDS011;59459;51.172;6.682;2022-09-16T17:40:21;5.60;;;0.87;;
71610;SDS011;59459;51.172;6.682;2022-09-16T17:42:49;4.07;;;0.53;;
71610;SDS011;59459;51.172;6.682;2022-09-16T17:45:15;6.07;;;0.60;;
71610;SDS011;59459;51.172;6.682;2022-09-16T17:47:40;5.73;;;0.80;;
71610;SDS011;59459;51.172;6.682;2022-09-16T17:50:06;5.13;;;1.07;;
71610;SDS011;59459;51.172;6.682;2022-09-16T17:52:31;5.32;;;0.98;;
71610;SDS011;59459;51.172;6.682;2022-09-16T17:54:57;8.80;;;1.10;;
71610;SDS011;59459;51.172;6.682;2022-09-16T17:57:22;3.97;;;0.63;;
71610;SDS011;59459;51.172;6.682;2022-09-16T17:59:49;3.97;;;0.53;;
71610;SDS011;59459;51.172;6.682;2022-09-16T18:02:15;3.30;;;0.45;;
71610;SDS011;59459;51.172;6.682;2022-09-16T18:04:40;2.27;;;0.70;;
71610;SDS011;59459;51.172;6.682;2022-09-16T18:07:07;3.97;;;0.50;;
71610;SDS011;59459;51.172;6.682;2022-09-16T18:09:32;6.63;;;0.88;;